Flight Track Log - Related Links

Times and Time Zones

All times are in EST time to prevent confusion due to time zone crossing. See the SWA3108 flight status page for this flight to view local times or setup timezone preferences in your user account.

Time Position Orientation Groundspeed Altitude Reporting Facility
EST Latitude Longitude Course Direction KTS MPH feet Rate Location/Type
Mon 02:59:21 PM 33.4333 -112.0333 272° West 173 199 2,200  Level Phoenix TRACON
Mon 03:01:10 PM 33.4367 -112.1681 272° West 234 269 6,300 2,632 Climbing Albuquerque Center
Mon 03:02:12 PM 33.4969 -112.1906 343° North 266 306 9,700 2,516 Climbing Albuquerque Center
Mon 03:03:14 PM 33.5686 -112.1283 36° Northeast 322 371 11,500 2,371 Climbing Albuquerque Center
Mon 03:04:16 PM 33.6528 -112.0597 34° Northeast 363 418 14,600 2,710 Climbing Albuquerque Center
Mon 03:05:18 PM 33.7392 -111.9889 34° Northeast 375 432 17,100 2,585 Climbing Albuquerque Center
Mon 03:06:19 PM 33.8458 -111.8997 35° Northeast 398 458 19,900 2,488 Climbing Albuquerque Center
Mon 03:07:21 PM 33.9503 -111.8131 35° Northeast 421 484 22,200 2,129 Climbing Albuquerque Center
Mon 03:08:23 PM 34.0511 -111.7314 34° Northeast 436 502 24,300 2,081 Climbing Albuquerque Center
Mon 03:09:25 PM 34.1694 -111.6814 19° North 427 491 26,500 1,790 Climbing Albuquerque Center
Mon 03:10:27 PM 34.2844 -111.6378 17° North 431 496 28,000 1,306 Climbing Albuquerque Center
Mon 03:11:29 PM 34.4044 -111.5911 18° North 445 512 29,200 1,113 Climbing Albuquerque Center
Mon 03:12:31 PM 34.5275 -111.5369 20° North 465 535 30,300 1,210 Climbing Albuquerque Center
Mon 03:13:33 PM 34.6308 -111.4125 45° Northeast 519 597 31,700 1,548 Climbing Albuquerque Center
Mon 03:14:35 PM 34.7233 -111.2789 50° Northeast 521 600 33,500 1,548 Climbing Albuquerque Center
Mon 03:15:37 PM 34.8175 -111.1472 49° Northeast 516 594 34,900 1,129 Climbing Albuquerque Center
Mon 03:17:41 PM 35.0203 -110.8550 50° Northeast 508 585 37,000 677 Climbing Denver Center
Mon 03:18:43 PM 35.1072 -110.7308 49° Northeast 504 580 37,000  Level Denver Center
Mon 03:19:45 PM 35.2025 -110.5778 53° Northeast 504 580 37,000  Level Albuquerque Center
Mon 03:20:46 PM 35.2847 -110.4483 52° Northeast 503 579 37,000  Level Albuquerque Center
Mon 03:21:48 PM 35.3814 -110.2983 52° Northeast 502 578 37,000  Level Albuquerque Center
Mon 03:22:50 PM 35.4639 -110.1714 51° Northeast 500 575 37,000  Level Albuquerque Center
Mon 03:23:52 PM 35.5692 -110.0367 46° Northeast 490 564 37,000  Level Albuquerque Center
Mon 03:24:54 PM 35.6628 -109.9272 44° Northeast 486 559 37,000  Level Albuquerque Center
Mon 03:25:56 PM 35.7531 -109.8156 45° Northeast 482 555 37,000  Level Albuquerque Center
Mon 03:26:58 PM 35.8581 -109.6847 45° Northeast 480 552 37,000  Level Albuquerque Center
Mon 03:28:00 PM 35.9483 -109.5731 45° Northeast 480 552 37,000  Level Denver Center
Mon 03:29:02 PM 36.0386 -109.4608 45° Northeast 480 552 37,000  Level Denver Center
Mon 03:30:04 PM 36.1436 -109.3300 45° Northeast 478 550 37,000  Level Denver Center
Mon 03:31:06 PM 36.2486 -109.1981 45° Northeast 477 549 37,000  Level Denver Center
Mon 03:32:08 PM 36.3392 -109.0836 45° Northeast 478 550 37,000  Level Denver Center
Mon 03:33:09 PM 36.4294 -108.9689 46° Northeast 480 552 37,000  Level Denver Center
Mon 03:34:11 PM 36.5347 -108.8358 45° Northeast 480 552 37,000  Level Denver Center
Mon 03:35:13 PM 36.6228 -108.7222 46° Northeast 477 549 37,000  Level Denver Center
Mon 03:36:15 PM 36.7250 -108.5919 46° Northeast 471 542 37,000  Level Denver Center
Mon 03:37:17 PM 36.8117 -108.4794 46° Northeast 469 540 37,000  Level Denver Center
Mon 03:38:19 PM 36.9144 -108.3519 45° Northeast 467 537 37,000  Level Denver Center
Mon 03:39:20 PM 37.0011 -108.2447 45° Northeast 460 529 37,000  Level Denver Center
Mon 03:40:22 PM 37.0861 -108.1367 45° Northeast 455 524 37,000  Level Denver Center
Mon 03:41:24 PM 37.1858 -108.0125 45° Northeast 454 522 37,000  Level Denver Center
Mon 03:42:26 PM 37.2719 -107.9053 45° Northeast 454 522 37,000  Level Denver Center
Mon 03:44:42 PM 37.4739 -107.6514 45° Northeast 458 527 37,000  Level Denver Center
Mon 03:45:44 PM 37.5733 -107.5222 46° Northeast 460 529 37,000  Level Denver Center
Mon 03:46:46 PM 37.6608 -107.4125 45° Northeast 461 531 37,000  Level Denver Center
Mon 03:47:48 PM 37.7592 -107.2828 46° Northeast 459 528 37,000  Level Denver Center
Mon 03:48:49 PM 37.8506 -107.1647 46° Northeast 460 529 37,000  Level Denver Center
Mon 03:49:51 PM 37.9367 -107.0547 45° Northeast 460 529 37,000  Level Denver Center
Mon 03:50:53 PM 38.0364 -106.9244 46° Northeast 461 531 37,000 -290 Level Denver Center
Mon 03:51:55 PM 38.1233 -106.8133 45° Northeast 463 533 36,400 -823 Descending Denver Center
Mon 03:52:57 PM 38.2228 -106.6817 46° Northeast 462 532 35,300 -968 Descending Denver Center
Mon 03:53:59 PM 38.3089 -106.5692 46° Northeast 462 532 34,400 -746 Descending Denver Center
Mon 03:56:02 PM 38.4919 -106.3264 47° Northeast 473 544 33,000 -454 Descending Denver Center
Mon 03:57:04 PM 38.5800 -106.2094 46° Northeast 461 531 33,000 -145 Level Denver Center
Mon 03:58:06 PM 38.6811 -106.0733 46° Northeast 462 532 32,700 -1,306 Descending Denver Center
Mon 03:59:08 PM 38.7692 -105.9567 46° Northeast 458 527 30,300 -2,465 Descending Denver Center
Mon 04:01:11 PM 38.9461 -105.7164 47° Northeast 441 507 25,100 -2,400 Descending Denver Center
Mon 04:02:13 PM 39.0261 -105.6083 46° Northeast 436 502 22,900 -1,871 Descending Denver Center
Mon 04:04:17 PM 39.1906 -105.3864 46° Northeast 396 456 19,300 -1,548 Descending Denver Center
Mon 04:05:19 PM 39.2628 -105.2842 48° Northeast 356 410 18,100 -1,306 Descending Denver Center
Mon 04:06:21 PM 39.2856 -105.1608 77° East 351 404 16,600 -1,561 Descending Denver Center
Mon 04:07:22 PM 39.3092 -105.0283 77° East 352 405 14,900 -1,220 Descending Denver Center
Mon 04:08:24 PM 39.3306 -104.9206 76° East 315 362 14,100 -758 Descending Denver Center
Mon 04:10:24 PM 39.3833 -104.7500 68° East 257 296 12,600 -891 Descending Denver TRACON
Mon 04:11:19 PM 39.4333 -104.7000 38° Northeast 244 281 11,500 -1,043 Descending Denver TRACON
Mon 04:12:19 PM 39.5000 -104.7000 360° North 232 267 10,600 -942 Descending Denver TRACON
Mon 04:13:20 PM 39.5667 -104.6833 11° North 231 266 9,600 -706 Descending Denver TRACON
Mon 04:14:35 PM 39.6419 -104.6903 356° North 226 260 9,000 -569 Descending Denver Center
Mon 04:15:37 PM 39.7111 -104.6889 North 230 265 8,300 -871 Descending Denver Center
Mon 04:16:39 PM 39.7697 -104.6886 360° North 215 247 7,200 -1,024 Descending Denver Center
Mon 04:17:40 PM 39.8239 -104.6881 360° North 184 212 6,200 -927 Descending Denver Center
Mon 04:18:42 PM 39.8667 -104.6878 360° North 162 186 5,300 -871 Descending Denver Center
Mon 04:20:00 PM 39.8617 -104.6732 North  Level Estimated
Mon 04:27:00 PM 39.8617 -104.6732 North  Level Estimated
Mon 04:28:00 PM 39.8617 -104.6732 North  Level Estimated
Mon 04:29:00 PM 39.8617 -104.6732 North  Level Estimated

Login

Don't have an account? Register now (free) for customized features, flight alerts, and more!